Time;durP1;ratioP1;P1;durP2;ratioP2;P2;SDS_P1;SDS_P2;PMS_P1;PMS_P2;Temp;Humidity;BMP_temperature;BMP_pressure;BME280_temperature;BME280_humidity;BME280_pressure;Samples;Min_cycle;Max_cycle;Signal;HPM_P1;HPM_P2
2023/06/10 00:01:36;;;;;;;4.07;2.40;;;;;;;;;;5081608;27;20092;-63
2023/06/10 00:04:01;;;;;;;3.60;2.47;;;;;;;;;;5081455;28;20092;-63
2023/06/10 00:06:28;;;;;;;4.45;2.90;;;;;;;;;;5071004;28;20151;-62
2023/06/10 00:08:54;;;;;;;4.07;2.70;;;;;;;;;;5082970;28;20054;-64
2023/06/10 00:11:21;;;;;;;4.10;2.50;;;;;;;;;;5071002;28;20145;-63
2023/06/10 00:13:46;;;;;;;4.70;3.10;;;;;;;;;;5075708;28;20478;-62
2023/06/10 00:16:11;;;;;;;3.30;2.40;;;;;;;;;;5072712;28;20045;-63
2023/06/10 00:18:38;;;;;;;3.07;2.50;;;;;;;;;;5074151;28;20513;-63
2023/06/10 00:21:04;;;;;;;4.43;2.83;;;;;;;;;;5079178;28;20044;-63
2023/06/10 00:23:37;;;;;;;4.15;2.67;;;;;;;;;;5073948;27;20107;-64
2023/06/10 00:26:02;;;;;;;4.22;2.88;;;;;;;;;;5067561;28;20057;-62
2023/06/10 00:28:27;;;;;;;3.37;2.47;;;;;;;;;;5068984;28;20570;-63
2023/06/10 00:30:53;;;;;;;3.07;2.63;;;;;;;;;;5062676;28;20370;-62
2023/06/10 00:33:18;;;;;;;4.13;2.80;;;;;;;;;;5064315;28;20340;-63
2023/06/10 00:35:43;;;;;;;3.93;2.80;;;;;;;;;;5063294;28;20029;-62
2023/06/10 00:38:08;;;;;;;4.73;2.80;;;;;;;;;;5064225;28;20032;-62
2023/06/10 00:40:38;;;;;;;3.10;2.60;;;;;;;;;;5080417;28;20048;-62
2023/06/10 00:43:03;;;;;;;;;;;;;;;;;;5084954;27;20278;-62
2023/06/10 00:45:29;;;;;;;3.65;2.70;;;;;;;;;;5080185;28;19931;-62
2023/06/10 00:47:54;;;;;;;4.10;2.60;;;;;;;;;;5068830;28;20064;-62
2023/06/10 00:50:19;;;;;;;4.63;2.93;;;;;;;;;;5090207;27;20040;-62
2023/06/10 00:52:46;;;;;;;3.67;3.07;;;;;;;;;;5078586;28;20040;-62
2023/06/10 00:55:11;;;;;;;2.75;2.20;;;;;;;;;;5076413;28;20039;-62
2023/06/10 00:57:37;;;;;;;4.28;3.03;;;;;;;;;;5086701;27;20037;-62
2023/06/10 01:00:07;;;;;;;3.95;2.60;;;;;;;;;;5078036;27;20037;-62
2023/06/10 01:02:32;;;;;;;3.10;2.33;;;;;;;;;;5072228;28;20028;-63
2023/06/10 01:04:58;;;;;;;3.63;2.60;;;;;;;;;;5067376;28;20110;-63
2023/06/10 01:07:26;;;;;;;3.35;2.67;;;;;;;;;;5063614;28;20283;-62
2023/06/10 01:10:03;;;;;;;3.33;2.40;;;;;;;;;;5068802;28;20036;-61
2023/06/10 01:12:28;;;;;;;3.50;2.78;;;;;;;;;;5067705;28;20040;-62
2023/06/10 01:14:54;;;;;;;4.00;2.67;;;;;;;;;;5075757;28;20528;-62
2023/06/10 01:17:19;;;;;;;3.97;2.75;;;;;;;;;;5085980;28;20501;-62
2023/06/10 01:19:44;;;;;;;3.70;2.38;;;;;;;;;;5073975;28;20514;-61
2023/06/10 01:22:10;;;;;;;4.55;2.63;;;;;;;;;;5082654;28;20094;-63
2023/06/10 01:24:36;;;;;;;4.22;2.67;;;;;;;;;;5068180;28;20503;-62
2023/06/10 01:27:01;;;;;;;3.42;2.78;;;;;;;;;;5067521;28;20348;-63
2023/06/10 01:29:37;;;;;;;3.00;2.45;;;;;;;;;;5083060;28;20082;-64
2023/06/10 01:32:14;;;;;;;3.42;2.70;;;;;;;;;;5071044;28;20672;-63
2023/06/10 01:34:39;;;;;;;4.15;2.58;;;;;;;;;;5073289;28;20040;-64
2023/06/10 01:37:04;;;;;;;3.87;2.57;;;;;;;;;;5070835;28;20082;-63
2023/06/10 01:39:29;;;;;;;4.72;2.50;;;;;;;;;;5056408;28;20290;-63
2023/06/10 01:41:55;;;;;;;3.43;2.17;;;;;;;;;;5071269;28;20037;-63
2023/06/10 01:44:20;;;;;;;3.08;2.55;;;;;;;;;;5070051;28;20521;-63
2023/06/10 01:46:46;;;;;;;3.78;2.58;;;;;;;;;;5071273;28;20067;-62
2023/06/10 01:49:11;;;;;;;4.03;2.60;;;;;;;;;;5068949;28;20104;-63
2023/06/10 01:51:36;;;;;;;3.67;2.60;;;;;;;;;;5073373;28;20051;-62
2023/06/10 01:54:02;;;;;;;3.83;2.43;;;;;;;;;;5065116;28;20833;-63
2023/06/10 01:56:27;;;;;;;3.37;2.80;;;;;;;;;;5084969;28;20409;-63
2023/06/10 01:58:55;;;;;;;4.30;2.67;;;;;;;;;;5050374;28;20396;-62
2023/06/10 02:01:20;;;;;;;3.05;2.38;;;;;;;;;;5083370;27;20740;-63
2023/06/10 02:03:45;;;;;;;3.55;2.63;;;;;;;;;;5070129;28;20051;-63
2023/06/10 02:06:11;;;;;;;3.80;2.60;;;;;;;;;;5067791;28;20048;-62
2023/06/10 02:08:36;;;;;;;2.90;2.30;;;;;;;;;;5079209;28;20054;-62
2023/06/10 02:11:01;;;;;;;4.23;2.73;;;;;;;;;;5071976;28;20366;-63
2023/06/10 02:13:26;;;;;;;2.75;2.40;;;;;;;;;;5066017;28;20271;-63
2023/06/10 02:15:53;;;;;;;3.77;2.70;;;;;;;;;;5082501;28;20444;-62
2023/06/10 02:18:20;;;;;;;4.15;2.78;;;;;;;;;;5073754;28;20110;-62
2023/06/10 02:20:45;;;;;;;3.85;2.38;;;;;;;;;;5080031;27;20074;-63
2023/06/10 02:23:11;;;;;;;5.53;3.60;;;;;;;;;;5065875;28;20036;-63
2023/06/10 02:25:36;;;;;;;3.92;2.88;;;;;;;;;;5083992;28;20353;-61
2023/06/10 02:28:03;;;;;;;3.33;2.57;;;;;;;;;;5082292;28;20119;-63
2023/06/10 02:30:28;;;;;;;4.32;2.72;;;;;;;;;;5082845;28;20048;-62
2023/06/10 02:32:56;;;;;;;3.07;2.70;;;;;;;;;;5083689;27;20030;-62
2023/06/10 02:35:23;;;;;;;4.05;2.78;;;;;;;;;;5084024;28;20377;-62
2023/06/10 02:37:49;;;;;;;3.35;2.53;;;;;;;;;;5076221;28;20028;-63
2023/06/10 02:40:14;;;;;;;4.15;2.47;;;;;;;;;;5082138;28;20040;-62
2023/06/10 02:42:39;;;;;;;3.58;2.65;;;;;;;;;;5081437;28;20081;-62
2023/06/10 02:45:05;;;;;;;3.78;2.33;;;;;;;;;;5083721;28;20500;-61
2023/06/10 02:47:30;;;;;;;4.07;2.80;;;;;;;;;;5081313;28;20034;-62
2023/06/10 02:49:56;;;;;;;3.53;2.47;;;;;;;;;;5079914;28;20080;-62
2023/06/10 02:52:21;;;;;;;3.33;2.63;;;;;;;;;;5082424;28;20502;-62
2023/06/10 02:54:46;;;;;;;3.80;2.60;;;;;;;;;;5082536;28;20288;-62
2023/06/10 02:57:11;;;;;;;3.83;2.50;;;;;;;;;;5081719;28;20028;-63
2023/06/10 02:59:37;;;;;;;4.27;2.37;;;;;;;;;;5079652;28;20301;-61
2023/06/10 03:02:02;;;;;;;3.70;2.40;;;;;;;;;;5079324;28;21269;-61
2023/06/10 03:04:28;;;;;;;4.53;2.72;;;;;;;;;;5082584;28;20859;-60
2023/06/10 03:06:54;;;;;;;3.15;2.50;;;;;;;;;;5077875;28;20441;-61
2023/06/10 03:09:19;;;;;;;4.15;2.60;;;;;;;;;;5081498;28;20044;-61
2023/06/10 03:11:44;;;;;;;3.67;2.40;;;;;;;;;;5081637;28;20075;-62
2023/06/10 03:14:10;;;;;;;3.20;2.30;;;;;;;;;;5083295;28;20832;-62
2023/06/10 03:16:35;;;;;;;3.75;2.50;;;;;;;;;;5076113;28;20024;-61
2023/06/10 03:19:00;;;;;;;3.45;2.72;;;;;;;;;;5083451;27;20055;-62
2023/06/10 03:21:26;;;;;;;3.43;2.40;;;;;;;;;;5080209;28;20044;-62
2023/06/10 03:23:52;;;;;;;4.00;2.60;;;;;;;;;;5080249;28;20043;-63
2023/06/10 03:26:17;;;;;;;3.90;2.43;;;;;;;;;;5080721;28;20043;-62
2023/06/10 03:28:42;;;;;;;4.07;2.70;;;;;;;;;;5083623;28;20326;-63
2023/06/10 03:31:07;;;;;;;3.40;2.20;;;;;;;;;;5081500;28;20746;-62
2023/06/10 03:33:32;;;;;;;3.93;2.77;;;;;;;;;;5079438;28;20386;-63
2023/06/10 03:35:58;;;;;;;3.50;2.53;;;;;;;;;;5079246;28;20285;-62
2023/06/10 03:38:23;;;;;;;3.50;2.75;;;;;;;;;;5082578;28;20042;-62
2023/06/10 03:40:48;;;;;;;3.50;2.63;;;;;;;;;;5082121;28;20101;-62
2023/06/10 03:43:14;;;;;;;3.87;2.20;;;;;;;;;;5083036;28;20356;-63
2023/06/10 03:45:40;;;;;;;3.77;2.53;;;;;;;;;;5095051;28;20294;-63
2023/06/10 03:48:07;;;;;;;4.00;2.90;;;;;;;;;;5080047;28;20285;-63
2023/06/10 03:50:33;;;;;;;3.72;2.50;;;;;;;;;;5063206;28;20461;-63
2023/06/10 03:52:58;;;;;;;3.37;2.43;;;;;;;;;;5081010;28;20127;-63
2023/06/10 03:55:23;;;;;;;4.07;2.60;;;;;;;;;;5083502;28;21105;-62
2023/06/10 03:57:49;;;;;;;4.17;2.73;;;;;;;;;;5076713;28;20278;-62
2023/06/10 04:00:15;;;;;;;3.65;2.63;;;;;;;;;;5080080;28;20032;-61
2023/06/10 04:02:45;;;;;;;2.85;2.20;;;;;;;;;;5080222;28;20068;-62
2023/06/10 04:05:11;;;;;;;4.03;2.72;;;;;;;;;;5081651;28;20098;-62
2023/06/10 04:07:36;;;;;;;3.70;2.50;;;;;;;;;;5079235;28;20075;-62
2023/06/10 04:10:02;;;;;;;3.70;2.57;;;;;;;;;;5064332;28;20024;-62
2023/06/10 04:12:27;;;;;;;6.18;2.90;;;;;;;;;;5065397;28;20036;-63
2023/06/10 04:14:53;;;;;;;4.10;2.50;;;;;;;;;;5080431;28;20028;-63
2023/06/10 04:17:18;;;;;;;3.85;2.67;;;;;;;;;;5079735;28;20444;-64
2023/06/10 04:19:43;;;;;;;4.80;2.63;;;;;;;;;;5078532;28;20055;-62
2023/06/10 04:22:08;;;;;;;3.30;2.53;;;;;;;;;;5071388;28;20045;-62
2023/06/10 04:24:34;;;;;;;4.43;2.60;;;;;;;;;;5063315;28;20073;-62
2023/06/10 04:27:00;;;;;;;4.22;2.90;;;;;;;;;;5079961;28;20055;-63
2023/06/10 04:29:25;;;;;;;4.97;2.85;;;;;;;;;;5072963;28;20047;-63
2023/06/10 04:31:50;;;;;;;7.53;4.30;;;;;;;;;;5071962;27;20020;-61
2023/06/10 04:34:15;;;;;;;6.23;4.40;;;;;;;;;;5069929;28;20304;-62
2023/06/10 04:36:41;;;;;;;7.00;4.93;;;;;;;;;;5074608;28;20798;-62
2023/06/10 04:39:06;;;;;;;6.93;5.00;;;;;;;;;;5062954;28;20401;-62
2023/06/10 04:41:31;;;;;;;6.35;4.85;;;;;;;;;;5073518;28;20257;-62
2023/06/10 04:43:57;;;;;;;6.80;5.23;;;;;;;;;;5050276;28;20020;-62
2023/06/10 04:46:23;;;;;;;8.73;5.72;;;;;;;;;;5078186;28;20325;-62
2023/06/10 04:48:48;;;;;;;8.35;5.18;;;;;;;;;;5051749;27;20524;-65
2023/06/10 04:51:13;;;;;;;11.02;5.72;;;;;;;;;;5084540;28;20020;-65
2023/06/10 04:53:39;;;;;;;6.05;4.85;;;;;;;;;;5086216;27;20103;-64
2023/06/10 04:56:04;;;;;;;6.00;4.30;;;;;;;;;;5085901;28;20024;-63
2023/06/10 04:58:30;;;;;;;5.70;3.83;;;;;;;;;;5085262;28;20254;-61
2023/06/10 05:00:55;;;;;;;4.95;4.03;;;;;;;;;;5071596;28;20111;-62
2023/06/10 05:03:20;;;;;;;5.63;3.67;;;;;;;;;;5083579;28;20111;-62
2023/06/10 05:05:45;;;;;;;5.85;3.60;;;;;;;;;;5069884;27;20300;-61
2023/06/10 05:08:11;;;;;;;5.63;3.27;;;;;;;;;;5064875;28;20040;-62
2023/06/10 05:10:36;;;;;;;5.57;3.73;;;;;;;;;;5071464;28;20281;-61
2023/06/10 05:13:02;;;;;;;3.88;3.35;;;;;;;;;;5070771;27;20565;-63
2023/06/10 05:15:28;;;;;;;5.68;3.58;;;;;;;;;;5076758;27;20409;-63
2023/06/10 05:17:53;;;;;;;4.80;3.70;;;;;;;;;;5077919;28;20030;-62
2023/06/10 05:20:18;;;;;;;6.13;3.63;;;;;;;;;;5075167;28;20483;-62
2023/06/10 05:22:44;;;;;;;6.15;3.42;;;;;;;;;;5066390;27;20024;-62
2023/06/10 05:25:09;;;;;;;5.70;3.50;;;;;;;;;;5076742;27;20479;-63
2023/06/10 05:27:35;;;;;;;5.93;3.45;;;;;;;;;;5081969;28;20024;-63
2023/06/10 05:30:01;;;;;;;4.68;3.03;;;;;;;;;;5075747;27;20027;-63
2023/06/10 05:32:26;;;;;;;4.93;3.00;;;;;;;;;;5076655;28;20024;-63
2023/06/10 05:34:51;;;;;;;4.90;3.37;;;;;;;;;;5072599;28;20024;-64
2023/06/10 05:37:16;;;;;;;3.97;3.00;;;;;;;;;;5088992;22;20328;-64
2023/06/10 05:39:42;;;;;;;5.00;3.17;;;;;;;;;;5014810;28;20304;-68
2023/06/10 05:42:07;;;;;;;5.60;3.50;;;;;;;;;;5032113;28;20838;-70
2023/06/10 05:44:33;;;;;;;4.72;3.20;;;;;;;;;;5029302;28;20037;-69
2023/06/10 05:46:58;;;;;;;4.78;2.90;;;;;;;;;;5033344;28;20039;-68
2023/06/10 05:49:23;;;;;;;3.47;2.90;;;;;;;;;;5034533;28;20035;-68
2023/06/10 05:51:48;;;;;;;4.15;3.10;;;;;;;;;;5033134;28;20475;-68
2023/06/10 05:54:14;;;;;;;5.13;3.10;;;;;;;;;;5032945;28;20134;-69
2023/06/10 05:56:39;;;;;;;5.38;2.97;;;;;;;;;;5027835;28;20772;-69
2023/06/10 05:59:04;;;;;;;5.27;3.80;;;;;;;;;;5070025;22;20356;-77
2023/06/10 06:01:30;;;;;;;4.47;3.10;;;;;;;;;;5034704;28;21537;-76
2023/06/10 06:03:55;;;;;;;6.27;4.20;;;;;;;;;;5056326;28;20097;-87
2023/06/10 06:06:20;;;;;;;6.67;3.97;;;;;;;;;;5070577;28;20868;-81
2023/06/10 06:08:45;;;;;;;7.85;4.53;;;;;;;;;;5052400;28;20495;-80
2023/06/10 06:11:11;;;;;;;7.47;4.88;;;;;;;;;;5053188;28;20075;-84
2023/06/10 06:13:36;;;;;;;7.67;5.07;;;;;;;;;;5070457;28;20043;-84
2023/06/10 06:16:01;;;;;;;7.57;5.27;;;;;;;;;;5070886;28;20040;-84
2023/06/10 06:18:26;;;;;;;7.83;4.80;;;;;;;;;;5072369;28;20013;-83
2023/06/10 06:20:51;;;;;;;7.23;4.93;;;;;;;;;;5055101;28;20279;-82
2023/06/10 06:23:17;;;;;;;6.10;3.90;;;;;;;;;;5059237;28;20279;-80
2023/06/10 06:25:42;;;;;;;4.47;3.47;;;;;;;;;;5067924;28;20291;-81
2023/06/10 06:28:08;;;;;;;5.17;3.80;;;;;;;;;;5070412;28;20557;-87
2023/06/10 06:30:34;;;;;;;5.50;3.83;;;;;;;;;;5068982;28;20047;-83
2023/06/10 06:32:59;;;;;;;6.25;4.18;;;;;;;;;;5067920;28;20556;-78
2023/06/10 06:35:24;;;;;;;6.13;3.57;;;;;;;;;;5065375;28;20115;-75
2023/06/10 06:37:49;;;;;;;5.20;3.37;;;;;;;;;;5053938;28;20650;-75
2023/06/10 06:40:15;;;;;;;4.57;3.57;;;;;;;;;;5068825;28;20051;-74
2023/06/10 06:42:40;;;;;;;6.85;3.60;;;;;;;;;;5083443;28;20088;-74
2023/06/10 06:45:06;;;;;;;9.02;3.97;;;;;;;;;;5065442;28;20064;-74
2023/06/10 06:47:31;;;;;;;5.40;3.30;;;;;;;;;;5068608;28;20119;-75
2023/06/10 06:49:56;;;;;;;4.40;3.13;;;;;;;;;;5053526;28;20041;-76
2023/06/10 06:52:22;;;;;;;5.07;3.08;;;;;;;;;;5050724;28;20052;-76
2023/06/10 06:54:47;;;;;;;5.75;3.40;;;;;;;;;;5069133;28;20055;-76
2023/06/10 06:57:12;;;;;;;5.75;3.20;;;;;;;;;;5056671;28;20040;-77
2023/06/10 06:59:38;;;;;;;5.03;3.37;;;;;;;;;;5051811;28;20049;-77
2023/06/10 07:02:03;;;;;;;5.17;3.57;;;;;;;;;;5056934;28;20352;-77
2023/06/10 07:04:28;;;;;;;5.63;3.50;;;;;;;;;;5066065;28;20041;-76
2023/06/10 07:06:54;;;;;;;4.20;3.10;;;;;;;;;;5064857;28;20048;-76
2023/06/10 07:09:19;;;;;;;5.43;3.67;;;;;;;;;;5065298;28;20029;-77
2023/06/10 07:11:44;;;;;;;5.03;3.20;;;;;;;;;;5067291;28;20086;-76
2023/06/10 07:14:10;;;;;;;7.05;3.30;;;;;;;;;;5048502;28;20351;-77
2023/06/10 07:16:35;;;;;;;5.30;2.80;;;;;;;;;;5068665;28;20064;-76
2023/06/10 07:19:00;;;;;;;5.20;3.40;;;;;;;;;;5056205;28;20044;-76
2023/06/10 07:21:25;;;;;;;5.67;3.53;;;;;;;;;;5079860;28;20299;-76
2023/06/10 07:23:54;;;;;;;4.87;3.30;;;;;;;;;;5091064;28;20294;-77
2023/06/10 07:26:19;;;;;;;6.57;3.40;;;;;;;;;;5092749;28;20275;-77
2023/06/10 07:28:44;;;;;;;7.73;3.40;;;;;;;;;;5071221;28;20090;-76
2023/06/10 07:31:11;;;;;;;5.57;3.80;;;;;;;;;;5068318;28;20289;-76
2023/06/10 07:33:38;;;;;;;5.75;3.33;;;;;;;;;;5071515;28;20037;-76
2023/06/10 07:36:04;;;;;;;6.60;3.40;;;;;;;;;;5069488;28;20060;-76
2023/06/10 07:38:29;;;;;;;8.13;3.97;;;;;;;;;;5058118;28;20063;-76
2023/06/10 07:40:54;;;;;;;9.03;3.53;;;;;;;;;;5059682;28;20045;-77
2023/06/10 07:43:20;;;;;;;5.20;3.08;;;;;;;;;;5053517;28;20386;-75
2023/06/10 07:45:45;;;;;;;5.00;3.27;;;;;;;;;;5068847;28;20132;-75
2023/06/10 07:48:10;;;;;;;5.57;3.50;;;;;;;;;;5063944;28;20075;-76
2023/06/10 07:50:36;;;;;;;8.80;3.70;;;;;;;;;;5076035;28;20433;-75
2023/06/10 07:53:01;;;;;;;4.77;3.60;;;;;;;;;;5075576;28;20605;-75
2023/06/10 07:55:26;;;;;;;6.00;3.08;;;;;;;;;;5074234;28;20492;-75
2023/06/10 07:57:52;;;;;;;6.27;3.10;;;;;;;;;;5060987;28;20066;-76
2023/06/10 08:00:17;;;;;;;6.47;3.60;;;;;;;;;;5037216;28;20876;-77
2023/06/10 08:02:43;;;;;;;5.80;2.92;;;;;;;;;;5065084;28;20200;-76
2023/06/10 08:05:08;;;;;;;4.43;2.95;;;;;;;;;;5053730;28;20091;-74
2023/06/10 08:07:33;;;;;;;4.97;3.10;;;;;;;;;;5065189;28;20249;-75
2023/06/10 08:10:01;;;;;;;4.90;3.37;;;;;;;;;;5055646;28;20053;-75
2023/06/10 08:12:26;;;;;;;5.13;3.03;;;;;;;;;;5041943;28;20123;-76
2023/06/10 08:14:51;;;;;;;7.50;3.13;;;;;;;;;;5058534;28;20138;-76
2023/06/10 08:17:17;;;;;;;3.95;3.15;;;;;;;;;;5050961;28;20107;-76
2023/06/10 08:19:42;;;;;;;6.47;3.43;;;;;;;;;;5039850;28;20737;-76
2023/06/10 08:22:07;;;;;;;5.15;3.00;;;;;;;;;;5059025;28;20359;-77
2023/06/10 08:24:33;;;;;;;6.63;2.70;;;;;;;;;;5067318;28;20464;-77
2023/06/10 08:26:58;;;;;;;5.82;2.88;;;;;;;;;;5074040;28;20411;-77
2023/06/10 08:29:23;;;;;;;5.72;3.25;;;;;;;;;;5070365;28;20525;-76
2023/06/10 08:31:48;;;;;;;5.77;3.30;;;;;;;;;;5059163;28;20755;-77
2023/06/10 08:34:14;;;;;;;3.53;2.70;;;;;;;;;;5058885;28;20519;-76
2023/06/10 08:36:39;;;;;;;5.32;2.55;;;;;;;;;;5072896;28;20397;-77
2023/06/10 08:39:04;;;;;;;4.30;2.70;;;;;;;;;;5070749;28;20536;-75
2023/06/10 08:41:30;;;;;;;3.67;2.77;;;;;;;;;;5041024;28;20037;-77
2023/06/10 08:44:09;;;;;;;4.35;2.33;;;;;;;;;;5060636;28;20064;-77
2023/06/10 08:46:35;;;;;;;4.05;2.50;;;;;;;;;;5075431;28;20048;-77
2023/06/10 08:49:01;;;;;;;4.67;2.70;;;;;;;;;;5040482;28;20121;-77
2023/06/10 08:51:27;;;;;;;4.80;2.85;;;;;;;;;;5075366;28;20028;-77
2023/06/10 08:54:03;;;;;;;6.32;2.70;;;;;;;;;;5070897;28;20041;-76
2023/06/10 08:56:28;;;;;;;4.63;2.78;;;;;;;;;;5055122;28;20296;-76
2023/06/10 08:58:53;;;;;;;7.80;2.83;;;;;;;;;;5071218;28;20049;-77
2023/06/10 09:01:18;;;;;;;3.37;2.27;;;;;;;;;;5070660;28;20047;-77
2023/06/10 09:03:44;;;;;;;4.28;2.50;;;;;;;;;;5055545;28;20226;-77
2023/06/10 09:06:09;;;;;;;4.80;2.90;;;;;;;;;;5058543;28;20062;-77
2023/06/10 09:08:35;;;;;;;3.90;2.67;;;;;;;;;;5073159;28;20031;-76
2023/06/10 09:11:00;;;;;;;4.03;2.53;;;;;;;;;;5059550;28;20044;-77
2023/06/10 09:13:25;;;;;;;4.00;2.53;;;;;;;;;;5061370;28;20033;-77
2023/06/10 09:15:51;;;;;;;4.20;2.20;;;;;;;;;;5070187;28;20041;-77
2023/06/10 09:18:16;;;;;;;3.45;2.20;;;;;;;;;;5061143;28;20032;-77
2023/06/10 09:20:42;;;;;;;6.13;2.92;;;;;;;;;;5060374;28;20051;-74
2023/06/10 09:23:07;;;;;;;5.65;2.63;;;;;;;;;;5072461;28;20033;-77
2023/06/10 09:25:37;;;;;;;4.13;2.70;;;;;;;;;;5071186;28;20040;-75
2023/06/10 09:28:02;;;;;;;3.85;2.38;;;;;;;;;;5041795;28;20029;-76
2023/06/10 09:30:28;;;;;;;3.75;2.55;;;;;;;;;;5061995;28;20040;-76
2023/06/10 09:32:56;;;;;;;2.87;2.07;;;;;;;;;;5061149;28;20029;-77
2023/06/10 09:35:21;;;;;;;4.65;2.42;;;;;;;;;;5062023;28;20404;-77
2023/06/10 09:37:46;;;;;;;5.30;2.25;;;;;;;;;;5059423;28;20462;-77
2023/06/10 09:40:11;;;;;;;3.63;2.37;;;;;;;;;;5082088;28;20052;-77
2023/06/10 09:42:38;;;;;;;4.78;2.63;;;;;;;;;;5072699;28;20381;-76
2023/06/10 09:45:04;;;;;;;3.60;2.47;;;;;;;;;;5077157;28;20389;-77
2023/06/10 09:47:29;;;;;;;4.93;2.53;;;;;;;;;;5065712;28;20029;-77
2023/06/10 09:49:55;;;;;;;3.00;2.33;;;;;;;;;;5062356;28;20025;-76
2023/06/10 09:52:26;;;;;;;4.00;2.92;;;;;;;;;;5063471;28;20040;-81
2023/06/10 09:54:52;;;;;;;4.55;2.75;;;;;;;;;;5059860;28;20610;-77
2023/06/10 09:57:17;;;;;;;3.83;2.50;;;;;;;;;;5076501;28;20059;-76
2023/06/10 09:59:43;;;;;;;4.05;2.65;;;;;;;;;;5079379;28;20570;-75
2023/06/10 10:02:15;;;;;;;4.27;2.60;;;;;;;;;;5055338;28;20435;-75
2023/06/10 10:04:41;;;;;;;3.35;2.45;;;;;;;;;;5060736;28;20310;-75
2023/06/10 10:07:07;;;;;;;3.15;2.25;;;;;;;;;;5058803;28;20661;-76
2023/06/10 10:09:32;;;;;;;2.55;2.00;;;;;;;;;;5046163;28;20060;-76
2023/06/10 10:11:58;;;;;;;3.80;2.17;;;;;;;;;;5077420;28;20067;-79
2023/06/10 10:14:23;;;;;;;4.63;2.30;;;;;;;;;;5062452;28;20036;-76
2023/06/10 10:16:48;;;;;;;2.60;1.88;;;;;;;;;;5063193;28;20655;-76
2023/06/10 10:19:27;;;;;;;2.90;2.10;;;;;;;;;;5068497;28;20044;-76
2023/06/10 10:21:53;;;;;;;3.65;2.08;;;;;;;;;;5053758;28;20064;-72
2023/06/10 10:24:21;;;;;;;3.35;2.13;;;;;;;;;;5054912;28;20054;-74
2023/06/10 10:26:46;;;;;;;3.58;2.50;;;;;;;;;;5057166;28;20141;-74
2023/06/10 10:29:16;;;;;;;3.95;2.38;;;;;;;;;;5053773;28;20159;-73
2023/06/10 10:31:42;;;;;;;3.60;2.33;;;;;;;;;;5069173;28;20094;-73
2023/06/10 10:34:09;;;;;;;4.43;2.38;;;;;;;;;;5056207;28;20036;-73
2023/06/10 10:36:34;;;;;;;3.85;2.20;;;;;;;;;;5068626;28;20127;-73
2023/06/10 10:39:01;;;;;;;3.20;2.10;;;;;;;;;;5068928;28;20046;-72
2023/06/10 10:41:27;;;;;;;3.05;2.10;;;;;;;;;;5053718;28;20058;-73
2023/06/10 10:43:52;;;;;;;4.22;2.40;;;;;;;;;;5054084;28;20048;-73
2023/06/10 10:46:17;;;;;;;2.90;2.20;;;;;;;;;;5073608;28;20531;-73
2023/06/10 10:48:43;;;;;;;3.30;2.08;;;;;;;;;;5054725;28;20152;-74
2023/06/10 10:51:08;;;;;;;4.20;2.28;;;;;;;;;;5068353;28;20119;-73
2023/06/10 10:53:33;;;;;;;3.00;2.30;;;;;;;;;;5068183;28;20038;-75
2023/06/10 10:56:05;;;;;;;3.67;2.30;;;;;;;;;;5056330;28;20085;-73
2023/06/10 10:58:32;;;;;;;3.53;2.53;;;;;;;;;;5056451;28;20463;-73
2023/06/10 11:00:57;;;;;;;4.60;2.15;;;;;;;;;;5054102;28;20028;-73
2023/06/10 11:03:22;;;;;;;3.47;2.33;;;;;;;;;;5033296;28;20182;-74
2023/06/10 11:05:48;;;;;;;3.03;2.40;;;;;;;;;;5074804;28;20306;-93
2023/06/10 11:08:14;;;;;;;4.10;2.10;;;;;;;;;;5056350;28;20028;-87
2023/06/10 11:10:40;;;;;;;3.97;2.50;;;;;;;;;;5072548;28;20028;-86
2023/06/10 11:13:08;;;;;;;3.88;2.40;;;;;;;;;;5054757;28;20031;-87
2023/06/10 11:15:37;;;;;;;4.20;2.67;;;;;;;;;;5074858;28;20028;-85
2023/06/10 11:18:12;;;;;;;3.30;2.42;;;;;;;;;;5059799;28;20031;-90
2023/06/10 11:20:49;;;;;;;4.80;2.60;;;;;;;;;;5054205;28;20048;-88
2023/06/10 11:23:27;;;;;;;4.18;2.47;;;;;;;;;;5064041;28;20033;-85
2023/06/10 11:26:11;;;;;;;3.88;2.78;;;;;;;;;;5066966;28;20033;-86
2023/06/10 11:28:37;;;;;;;3.45;2.55;;;;;;;;;;5049957;28;20041;-76
2023/06/10 11:31:02;;;;;;;3.10;2.30;;;;;;;;;;5052221;28;20037;-75
2023/06/10 11:33:28;;;;;;;4.55;2.50;;;;;;;;;;5067417;28;20414;-76
2023/06/10 11:35:53;;;;;;;4.57;2.60;;;;;;;;;;5066768;28;20029;-76
2023/06/10 11:38:19;;;;;;;3.75;2.72;;;;;;;;;;5052029;28;20044;-76
2023/06/10 11:40:50;;;;;;;4.20;3.17;;;;;;;;;;5052751;28;20066;-76
2023/06/10 11:43:18;;;;;;;5.38;2.80;;;;;;;;;;5068550;28;20036;-76
2023/06/10 11:45:44;;;;;;;3.65;2.80;;;;;;;;;;5066052;28;20231;-76
2023/06/10 11:48:09;;;;;;;3.47;2.72;;;;;;;;;;5054595;28;20757;-76
2023/06/10 11:50:34;;;;;;;4.75;2.70;;;;;;;;;;5069427;28;20449;-76
2023/06/10 11:52:59;;;;;;;3.67;2.80;;;;;;;;;;5068561;28;20071;-78
2023/06/10 11:55:44;;;;;;;4.40;2.50;;;;;;;;;;5069306;28;20032;-77
2023/06/10 11:58:13;;;;;;;8.27;3.53;;;;;;;;;;5052492;28;20305;-76
2023/06/10 12:00:48;;;;;;;4.93;2.78;;;;;;;;;;5040103;28;20028;-77
2023/06/10 12:03:14;;;;;;;4.60;2.90;;;;;;;;;;5055740;28;20041;-78
2023/06/10 12:05:39;;;;;;;4.45;3.33;;;;;;;;;;5055862;28;20053;-77
2023/06/10 12:08:11;;;;;;;4.10;3.17;;;;;;;;;;5068966;28;20033;-77
2023/06/10 12:10:42;;;;;;;5.93;3.28;;;;;;;;;;5053178;28;20032;-76
2023/06/10 12:13:08;;;;;;;5.10;2.80;;;;;;;;;;5072019;28;20062;-76
2023/06/10 12:15:34;;;;;;;5.07;2.75;;;;;;;;;;5054530;28;20041;-75
2023/06/10 12:17:59;;;;;;;4.50;2.65;;;;;;;;;;5061780;28;20044;-77
2023/06/10 12:20:25;;;;;;;4.20;2.87;;;;;;;;;;5057757;28;20060;-75
2023/06/10 12:22:50;;;;;;;3.25;2.63;;;;;;;;;;5036603;28;20786;-75
2023/06/10 12:25:15;;;;;;;4.23;2.73;;;;;;;;;;5050368;28;20178;-75
2023/06/10 12:27:49;;;;;;;5.33;2.87;;;;;;;;;;5068713;28;20024;-75
2023/06/10 12:30:18;;;;;;;5.80;2.70;;;;;;;;;;5071577;28;20044;-76
2023/06/10 12:32:44;;;;;;;5.68;2.78;;;;;;;;;;5058281;28;20028;-76
2023/06/10 12:35:10;;;;;;;4.32;2.55;;;;;;;;;;5048318;28;20045;-75
2023/06/10 12:37:36;;;;;;;5.00;2.85;;;;;;;;;;5047371;28;20037;-75
2023/06/10 12:40:06;;;;;;;5.50;2.60;;;;;;;;;;5065123;28;20328;-76
2023/06/10 12:42:33;;;;;;;3.45;2.65;;;;;;;;;;5065377;28;20024;-76
2023/06/10 12:45:00;;;;;;;4.40;2.97;;;;;;;;;;5048986;28;20040;-76
2023/06/10 12:47:29;;;;;;;3.75;2.58;;;;;;;;;;5051392;28;20086;-75
2023/06/10 12:49:54;;;;;;;4.18;2.83;;;;;;;;;;5065102;28;20021;-75
2023/06/10 12:52:20;;;;;;;3.97;2.80;;;;;;;;;;5042282;28;20444;-75
2023/06/10 12:54:45;;;;;;;4.28;2.95;;;;;;;;;;5053443;28;20279;-76
2023/06/10 12:57:10;;;;;;;3.92;2.85;;;;;;;;;;5062529;28;20037;-75
2023/06/10 12:59:36;;;;;;;4.63;3.20;;;;;;;;;;5063960;28;20513;-75
2023/06/10 13:02:01;;;;;;;4.15;3.20;;;;;;;;;;5061960;28;20028;-76
2023/06/10 13:04:27;;;;;;;4.25;2.78;;;;;;;;;;5079278;28;20031;-75
2023/06/10 13:06:52;;;;;;;3.55;2.67;;;;;;;;;;5073252;28;20432;-76
2023/06/10 13:09:17;;;;;;;3.72;2.78;;;;;;;;;;5066710;28;20012;-74
2023/06/10 13:11:42;;;;;;;5.73;3.00;;;;;;;;;;5064904;28;20028;-76
2023/06/10 13:14:08;;;;;;;4.20;2.72;;;;;;;;;;5064362;28;20788;-76
2023/06/10 13:16:33;;;;;;;3.33;2.58;;;;;;;;;;5076782;28;20577;-77
2023/06/10 13:18:58;;;;;;;4.88;3.17;;;;;;;;;;5068975;28;20028;-81
2023/06/10 13:21:24;;;;;;;4.25;2.60;;;;;;;;;;5041574;28;20104;-77
2023/06/10 13:23:50;;;;;;;4.25;2.83;;;;;;;;;;5050660;28;20135;-77
2023/06/10 13:26:18;;;;;;;4.30;2.58;;;;;;;;;;5044962;28;20128;-78
2023/06/10 13:28:44;;;;;;;6.15;2.63;;;;;;;;;;5051950;28;20025;-78
2023/06/10 13:31:09;;;;;;;3.65;2.78;;;;;;;;;;5062266;28;20048;-75
2023/06/10 13:33:34;;;;;;;5.03;3.10;;;;;;;;;;5071448;28;20148;-80
2023/06/10 13:35:59;;;;;;;3.30;2.50;;;;;;;;;;5061388;28;20041;-74
2023/06/10 13:38:25;;;;;;;3.40;2.27;;;;;;;;;;5084732;28;20056;-76
2023/06/10 13:40:50;;;;;;;3.50;2.80;;;;;;;;;;5081443;28;20033;-75
2023/06/10 13:43:16;;;;;;;5.20;2.90;;;;;;;;;;5059550;28;20025;-76
2023/06/10 13:45:42;;;;;;;5.53;2.53;;;;;;;;;;5105350;28;20372;-76
2023/06/10 13:48:07;;;;;;;5.63;3.20;;;;;;;;;;5071965;28;20060;-79
2023/06/10 13:50:32;;;;;;;4.70;3.08;;;;;;;;;;5065898;28;20036;-80
2023/06/10 13:52:57;;;;;;;7.07;3.30;;;;;;;;;;5063189;28;20032;-81
2023/06/10 13:55:24;;;;;;;9.15;3.35;;;;;;;;;;5054682;28;20451;-81
2023/06/10 13:57:49;;;;;;;5.35;3.40;;;;;;;;;;5049928;28;20044;-76
2023/06/10 14:00:15;;;;;;;6.22;3.00;;;;;;;;;;5066232;28;20136;-73
2023/06/10 14:02:40;;;;;;;5.13;3.50;;;;;;;;;;5072495;28;20035;-75
2023/06/10 14:05:06;;;;;;;5.90;3.27;;;;;;;;;;5050827;28;20130;-75
2023/06/10 14:07:31;;;;;;;6.72;3.42;;;;;;;;;;5076423;28;20298;-77
2023/06/10 14:09:56;;;;;;;4.00;2.60;;;;;;;;;;5079672;28;20124;-77
2023/06/10 14:12:21;;;;;;;5.07;2.70;;;;;;;;;;5064500;28;20279;-77
2023/06/10 14:14:47;;;;;;;3.97;2.87;;;;;;;;;;5048548;28;20045;-77
2023/06/10 14:17:12;;;;;;;4.55;2.85;;;;;;;;;;5050076;28;20048;-75
2023/06/10 14:19:38;;;;;;;5.13;2.70;;;;;;;;;;5066600;28;20483;-76
2023/06/10 14:22:03;;;;;;;5.53;2.90;;;;;;;;;;5066251;28;20135;-75
2023/06/10 14:24:28;;;;;;;3.83;3.35;;;;;;;;;;5064838;28;20039;-76
2023/06/10 14:26:53;;;;;;;4.53;2.88;;;;;;;;;;5054907;28;20037;-76
2023/06/10 14:29:19;;;;;;;5.50;3.00;;;;;;;;;;5067622;28;20052;-76
2023/06/10 14:31:44;;;;;;;4.97;2.80;;;;;;;;;;5065139;28;20040;-78
2023/06/10 14:34:09;;;;;;;3.60;2.80;;;;;;;;;;5046993;28;20032;-83
2023/06/10 14:36:35;;;;;;;4.85;2.90;;;;;;;;;;5046661;28;20421;-79